sensor_id;sensor_type;location;lat;lon;timestamp;P1;durP1;ratioP1;P2;durP2;ratioP2
78732;SDS011;68056;52.530;5.454;2023-12-29T00:00:25;4.05;;;1.55;;
78732;SDS011;68056;52.530;5.454;2023-12-29T00:02:51;6.05;;;2.15;;
78732;SDS011;68056;52.530;5.454;2023-12-29T00:05:17;8.98;;;2.22;;
78732;SDS011;68056;52.530;5.454;2023-12-29T00:07:42;9.65;;;2.17;;
78732;SDS011;68056;52.530;5.454;2023-12-29T00:10:08;4.90;;;1.95;;
78732;SDS011;68056;52.530;5.454;2023-12-29T00:12:34;7.13;;;1.73;;
78732;SDS011;68056;52.530;5.454;2023-12-29T00:14:59;6.32;;;2.05;;
78732;SDS011;68056;52.530;5.454;2023-12-29T00:17:25;7.57;;;2.38;;
78732;SDS011;68056;52.530;5.454;2023-12-29T00:19:50;6.07;;;2.00;;
78732;SDS011;68056;52.530;5.454;2023-12-29T00:22:16;7.13;;;2.28;;
78732;SDS011;68056;52.530;5.454;2023-12-29T00:24:41;8.40;;;2.10;;
78732;SDS011;68056;52.530;5.454;2023-12-29T00:27:07;10.05;;;2.17;;
78732;SDS011;68056;52.530;5.454;2023-12-29T00:29:33;8.25;;;1.90;;
78732;SDS011;68056;52.530;5.454;2023-12-29T00:31:59;11.18;;;1.80;;
78732;SDS011;68056;52.530;5.454;2023-12-29T00:34:27;5.38;;;1.58;;
78732;SDS011;68056;52.530;5.454;2023-12-29T00:36:53;5.95;;;1.90;;
78732;SDS011;68056;52.530;5.454;2023-12-29T00:39:19;12.55;;;2.47;;
78732;SDS011;68056;52.530;5.454;2023-12-29T00:41:53;8.40;;;2.60;;
78732;SDS011;68056;52.530;5.454;2023-12-29T00:44:19;5.32;;;2.13;;
78732;SDS011;68056;52.530;5.454;2023-12-29T00:46:44;7.57;;;1.73;;
78732;SDS011;68056;52.530;5.454;2023-12-29T00:49:10;8.45;;;2.47;;
78732;SDS011;68056;52.530;5.454;2023-12-29T00:51:39;8.43;;;1.80;;
78732;SDS011;68056;52.530;5.454;2023-12-29T00:54:06;6.82;;;1.83;;
78732;SDS011;68056;52.530;5.454;2023-12-29T00:56:32;5.82;;;1.63;;
78732;SDS011;68056;52.530;5.454;2023-12-29T00:58:58;7.68;;;1.92;;
78732;SDS011;68056;52.530;5.454;2023-12-29T01:01:23;4.47;;;1.25;;
78732;SDS011;68056;52.530;5.454;2023-12-29T01:03:49;5.80;;;1.77;;
78732;SDS011;68056;52.530;5.454;2023-12-29T01:06:15;7.15;;;2.70;;
78732;SDS011;68056;52.530;5.454;2023-12-29T01:08:40;4.95;;;1.98;;
78732;SDS011;68056;52.530;5.454;2023-12-29T01:11:06;7.30;;;2.50;;
78732;SDS011;68056;52.530;5.454;2023-12-29T01:13:32;7.43;;;2.47;;
78732;SDS011;68056;52.530;5.454;2023-12-29T01:15:57;6.10;;;1.98;;
78732;SDS011;68056;52.530;5.454;2023-12-29T01:18:23;5.78;;;2.00;;
78732;SDS011;68056;52.530;5.454;2023-12-29T01:20:48;8.15;;;1.52;;
78732;SDS011;68056;52.530;5.454;2023-12-29T01:23:14;7.18;;;2.13;;
78732;SDS011;68056;52.530;5.454;2023-12-29T01:25:39;11.15;;;2.10;;
78732;SDS011;68056;52.530;5.454;2023-12-29T01:28:05;6.93;;;2.17;;
78732;SDS011;68056;52.530;5.454;2023-12-29T01:30:30;4.53;;;1.73;;
78732;SDS011;68056;52.530;5.454;2023-12-29T01:32:56;10.65;;;2.15;;
78732;SDS011;68056;52.530;5.454;2023-12-29T01:35:22;5.75;;;1.75;;
78732;SDS011;68056;52.530;5.454;2023-12-29T01:37:47;9.75;;;2.35;;
78732;SDS011;68056;52.530;5.454;2023-12-29T01:40:13;4.72;;;1.63;;
78732;SDS011;68056;52.530;5.454;2023-12-29T01:42:38;6.53;;;2.10;;
78732;SDS011;68056;52.530;5.454;2023-12-29T01:45:05;10.18;;;3.20;;
78732;SDS011;68056;52.530;5.454;2023-12-29T01:47:35;5.30;;;2.13;;
78732;SDS011;68056;52.530;5.454;2023-12-29T01:50:00;5.88;;;1.73;;
78732;SDS011;68056;52.530;5.454;2023-12-29T01:52:26;8.60;;;2.17;;
78732;SDS011;68056;52.530;5.454;2023-12-29T01:54:52;6.43;;;1.92;;
78732;SDS011;68056;52.530;5.454;2023-12-29T01:57:18;7.57;;;2.10;;
78732;SDS011;68056;52.530;5.454;2023-12-29T01:59:45;5.07;;;1.77;;
78732;SDS011;68056;52.530;5.454;2023-12-29T02:02:13;7.50;;;2.00;;
78732;SDS011;68056;52.530;5.454;2023-12-29T02:04:40;5.82;;;1.95;;
78732;SDS011;68056;52.530;5.454;2023-12-29T02:07:06;6.20;;;2.58;;
78732;SDS011;68056;52.530;5.454;2023-12-29T02:09:32;5.80;;;2.53;;
78732;SDS011;68056;52.530;5.454;2023-12-29T02:11:59;7.15;;;1.88;;
78732;SDS011;68056;52.530;5.454;2023-12-29T02:14:24;7.60;;;2.20;;
78732;SDS011;68056;52.530;5.454;2023-12-29T02:17:08;7.15;;;2.08;;
78732;SDS011;68056;52.530;5.454;2023-12-29T02:19:46;7.43;;;2.13;;
78732;SDS011;68056;52.530;5.454;2023-12-29T02:22:15;8.18;;;1.92;;
78732;SDS011;68056;52.530;5.454;2023-12-29T02:24:47;5.95;;;2.13;;
78732;SDS011;68056;52.530;5.454;2023-12-29T02:32:51;5.70;;;2.10;;
78732;SDS011;68056;52.530;5.454;2023-12-29T02:35:23;7.55;;;2.03;;
78732;SDS011;68056;52.530;5.454;2023-12-29T02:37:50;6.07;;;2.80;;
78732;SDS011;68056;52.530;5.454;2023-12-29T02:40:16;7.88;;;2.47;;
78732;SDS011;68056;52.530;5.454;2023-12-29T02:42:46;12.43;;;2.55;;
78732;SDS011;68056;52.530;5.454;2023-12-29T02:45:13;8.75;;;3.05;;
78732;SDS011;68056;52.530;5.454;2023-12-29T02:47:39;7.20;;;2.45;;
78732;SDS011;68056;52.530;5.454;2023-12-29T02:50:06;4.72;;;2.10;;
78732;SDS011;68056;52.530;5.454;2023-12-29T02:52:32;10.73;;;2.80;;
78732;SDS011;68056;52.530;5.454;2023-12-29T02:54:57;6.00;;;2.30;;
78732;SDS011;68056;52.530;5.454;2023-12-29T02:57:23;6.40;;;3.47;;
78732;SDS011;68056;52.530;5.454;2023-12-29T02:59:48;9.50;;;2.75;;
78732;SDS011;68056;52.530;5.454;2023-12-29T03:02:14;6.43;;;2.10;;
78732;SDS011;68056;52.530;5.454;2023-12-29T03:04:39;5.68;;;1.60;;
78732;SDS011;68056;52.530;5.454;2023-12-29T03:07:05;10.30;;;2.35;;
78732;SDS011;68056;52.530;5.454;2023-12-29T03:09:32;3.60;;;1.58;;
78732;SDS011;68056;52.530;5.454;2023-12-29T03:11:57;9.70;;;2.30;;
78732;SDS011;68056;52.530;5.454;2023-12-29T03:14:23;8.65;;;2.25;;
78732;SDS011;68056;52.530;5.454;2023-12-29T03:16:48;11.20;;;2.08;;
78732;SDS011;68056;52.530;5.454;2023-12-29T03:19:15;10.63;;;2.42;;
78732;SDS011;68056;52.530;5.454;2023-12-29T03:21:40;10.23;;;2.13;;
78732;SDS011;68056;52.530;5.454;2023-12-29T03:24:06;8.27;;;1.95;;
78732;SDS011;68056;52.530;5.454;2023-12-29T03:26:32;4.63;;;1.55;;
78732;SDS011;68056;52.530;5.454;2023-12-29T03:28:57;9.80;;;2.25;;
78732;SDS011;68056;52.530;5.454;2023-12-29T03:31:23;6.95;;;2.45;;
78732;SDS011;68056;52.530;5.454;2023-12-29T03:33:48;5.82;;;1.63;;
78732;SDS011;68056;52.530;5.454;2023-12-29T03:36:14;11.73;;;2.47;;
78732;SDS011;68056;52.530;5.454;2023-12-29T03:38:39;10.43;;;2.17;;
78732;SDS011;68056;52.530;5.454;2023-12-29T03:41:05;9.65;;;1.63;;
78732;SDS011;68056;52.530;5.454;2023-12-29T03:43:30;14.70;;;1.90;;
78732;SDS011;68056;52.530;5.454;2023-12-29T03:45:57;10.77;;;1.85;;
78732;SDS011;68056;52.530;5.454;2023-12-29T03:48:23;13.77;;;1.95;;
78732;SDS011;68056;52.530;5.454;2023-12-29T03:50:49;12.85;;;2.03;;
78732;SDS011;68056;52.530;5.454;2023-12-29T03:53:14;7.20;;;1.80;;
78732;SDS011;68056;52.530;5.454;2023-12-29T03:55:40;12.27;;;1.85;;
78732;SDS011;68056;52.530;5.454;2023-12-29T03:58:06;10.38;;;2.70;;
78732;SDS011;68056;52.530;5.454;2023-12-29T04:00:32;6.70;;;1.80;;
78732;SDS011;68056;52.530;5.454;2023-12-29T04:02:57;11.70;;;2.67;;
78732;SDS011;68056;52.530;5.454;2023-12-29T04:05:23;9.10;;;1.65;;
78732;SDS011;68056;52.530;5.454;2023-12-29T04:07:48;11.52;;;2.65;;
78732;SDS011;68056;52.530;5.454;2023-12-29T04:10:14;18.48;;;3.75;;
78732;SDS011;68056;52.530;5.454;2023-12-29T04:12:40;9.60;;;2.30;;
78732;SDS011;68056;52.530;5.454;2023-12-29T04:15:05;11.63;;;1.98;;
78732;SDS011;68056;52.530;5.454;2023-12-29T04:17:31;11.10;;;2.25;;
78732;SDS011;68056;52.530;5.454;2023-12-29T04:19:57;11.52;;;1.83;;
78732;SDS011;68056;52.530;5.454;2023-12-29T04:22:23;11.68;;;2.45;;
78732;SDS011;68056;52.530;5.454;2023-12-29T04:24:48;10.63;;;1.85;;
78732;SDS011;68056;52.530;5.454;2023-12-29T04:27:14;12.57;;;2.15;;
78732;SDS011;68056;52.530;5.454;2023-12-29T04:29:40;8.52;;;1.85;;
78732;SDS011;68056;52.530;5.454;2023-12-29T04:32:06;8.88;;;1.77;;
78732;SDS011;68056;52.530;5.454;2023-12-29T04:34:31;7.90;;;1.80;;
78732;SDS011;68056;52.530;5.454;2023-12-29T04:36:57;13.25;;;2.20;;
78732;SDS011;68056;52.530;5.454;2023-12-29T04:39:22;15.05;;;2.00;;
78732;SDS011;68056;52.530;5.454;2023-12-29T04:41:49;8.38;;;2.13;;
78732;SDS011;68056;52.530;5.454;2023-12-29T04:44:15;11.43;;;2.80;;
78732;SDS011;68056;52.530;5.454;2023-12-29T04:46:41;9.80;;;1.50;;
78732;SDS011;68056;52.530;5.454;2023-12-29T04:49:07;8.32;;;1.60;;
78732;SDS011;68056;52.530;5.454;2023-12-29T04:51:33;13.82;;;2.00;;
78732;SDS011;68056;52.530;5.454;2023-12-29T04:53:59;7.80;;;1.60;;
78732;SDS011;68056;52.530;5.454;2023-12-29T04:56:24;8.27;;;1.55;;
78732;SDS011;68056;52.530;5.454;2023-12-29T04:58:53;7.65;;;1.35;;
78732;SDS011;68056;52.530;5.454;2023-12-29T05:01:18;12.05;;;2.22;;
78732;SDS011;68056;52.530;5.454;2023-12-29T05:03:44;8.90;;;2.35;;
78732;SDS011;68056;52.530;5.454;2023-12-29T05:06:10;9.65;;;1.75;;
78732;SDS011;68056;52.530;5.454;2023-12-29T05:08:35;7.95;;;1.83;;
78732;SDS011;68056;52.530;5.454;2023-12-29T05:11:01;13.32;;;2.25;;
78732;SDS011;68056;52.530;5.454;2023-12-29T05:13:26;15.60;;;2.33;;
78732;SDS011;68056;52.530;5.454;2023-12-29T05:15:52;10.38;;;2.25;;
78732;SDS011;68056;52.530;5.454;2023-12-29T05:18:17;11.82;;;2.00;;
78732;SDS011;68056;52.530;5.454;2023-12-29T05:20:43;10.80;;;1.90;;
78732;SDS011;68056;52.530;5.454;2023-12-29T05:23:09;9.25;;;2.28;;
78732;SDS011;68056;52.530;5.454;2023-12-29T05:25:34;12.30;;;2.05;;
78732;SDS011;68056;52.530;5.454;2023-12-29T05:28:00;14.60;;;2.50;;
78732;SDS011;68056;52.530;5.454;2023-12-29T05:30:26;12.48;;;1.95;;
78732;SDS011;68056;52.530;5.454;2023-12-29T05:32:52;11.35;;;2.45;;
78732;SDS011;68056;52.530;5.454;2023-12-29T05:35:18;17.08;;;2.63;;
78732;SDS011;68056;52.530;5.454;2023-12-29T05:37:44;14.25;;;2.42;;
78732;SDS011;68056;52.530;5.454;2023-12-29T05:40:09;14.88;;;2.58;;
78732;SDS011;68056;52.530;5.454;2023-12-29T05:42:35;12.27;;;2.22;;
78732;SDS011;68056;52.530;5.454;2023-12-29T05:45:01;10.60;;;2.80;;
78732;SDS011;68056;52.530;5.454;2023-12-29T05:47:27;12.13;;;2.53;;
78732;SDS011;68056;52.530;5.454;2023-12-29T05:49:52;11.85;;;2.63;;
78732;SDS011;68056;52.530;5.454;2023-12-29T05:52:18;10.13;;;1.95;;
78732;SDS011;68056;52.530;5.454;2023-12-29T05:54:44;15.68;;;2.92;;
78732;SDS011;68056;52.530;5.454;2023-12-29T05:57:09;17.20;;;2.70;;
78732;SDS011;68056;52.530;5.454;2023-12-29T05:59:35;12.95;;;2.20;;
78732;SDS011;68056;52.530;5.454;2023-12-29T06:02:01;8.23;;;3.13;;
78732;SDS011;68056;52.530;5.454;2023-12-29T06:04:27;15.70;;;2.42;;
78732;SDS011;68056;52.530;5.454;2023-12-29T06:06:53;12.48;;;2.35;;
78732;SDS011;68056;52.530;5.454;2023-12-29T06:09:18;14.88;;;2.70;;
78732;SDS011;68056;52.530;5.454;2023-12-29T06:11:44;10.73;;;2.20;;
78732;SDS011;68056;52.530;5.454;2023-12-29T06:14:10;15.07;;;2.50;;
78732;SDS011;68056;52.530;5.454;2023-12-29T06:16:36;13.45;;;2.90;;
78732;SDS011;68056;52.530;5.454;2023-12-29T06:19:01;20.42;;;3.67;;
78732;SDS011;68056;52.530;5.454;2023-12-29T06:21:27;10.38;;;1.90;;
78732;SDS011;68056;52.530;5.454;2023-12-29T06:23:53;13.40;;;3.65;;
78732;SDS011;68056;52.530;5.454;2023-12-29T06:26:19;13.88;;;2.85;;
78732;SDS011;68056;52.530;5.454;2023-12-29T06:28:45;11.50;;;2.58;;
78732;SDS011;68056;52.530;5.454;2023-12-29T06:31:13;15.70;;;2.42;;
78732;SDS011;68056;52.530;5.454;2023-12-29T06:33:42;10.52;;;3.55;;
78732;SDS011;68056;52.530;5.454;2023-12-29T06:36:08;15.55;;;2.63;;
78732;SDS011;68056;52.530;5.454;2023-12-29T06:38:35;16.00;;;3.55;;
78732;SDS011;68056;52.530;5.454;2023-12-29T06:41:01;13.18;;;2.42;;
78732;SDS011;68056;52.530;5.454;2023-12-29T06:43:29;14.05;;;2.50;;
78732;SDS011;68056;52.530;5.454;2023-12-29T06:45:55;15.45;;;3.85;;
78732;SDS011;68056;52.530;5.454;2023-12-29T06:48:20;12.55;;;3.25;;
78732;SDS011;68056;52.530;5.454;2023-12-29T06:50:46;13.45;;;2.20;;
78732;SDS011;68056;52.530;5.454;2023-12-29T06:53:11;15.73;;;2.90;;
78732;SDS011;68056;52.530;5.454;2023-12-29T06:55:37;13.13;;;3.25;;
78732;SDS011;68056;52.530;5.454;2023-12-29T06:58:04;13.75;;;2.22;;
78732;SDS011;68056;52.530;5.454;2023-12-29T07:00:29;16.23;;;2.70;;
78732;SDS011;68056;52.530;5.454;2023-12-29T07:02:55;17.80;;;2.92;;
78732;SDS011;68056;52.530;5.454;2023-12-29T07:05:21;12.65;;;2.60;;
78732;SDS011;68056;52.530;5.454;2023-12-29T07:07:46;14.25;;;2.72;;
78732;SDS011;68056;52.530;5.454;2023-12-29T07:10:12;13.63;;;2.63;;
78732;SDS011;68056;52.530;5.454;2023-12-29T07:12:39;12.95;;;2.53;;
78732;SDS011;68056;52.530;5.454;2023-12-29T07:15:09;13.95;;;2.40;;
78732;SDS011;68056;52.530;5.454;2023-12-29T07:17:34;13.65;;;2.15;;
78732;SDS011;68056;52.530;5.454;2023-12-29T07:20:00;12.65;;;2.95;;
78732;SDS011;68056;52.530;5.454;2023-12-29T07:22:26;7.30;;;1.90;;
78732;SDS011;68056;52.530;5.454;2023-12-29T07:24:52;6.90;;;1.60;;
78732;SDS011;68056;52.530;5.454;2023-12-29T07:27:18;12.40;;;2.33;;
78732;SDS011;68056;52.530;5.454;2023-12-29T07:29:43;10.98;;;2.45;;
78732;SDS011;68056;52.530;5.454;2023-12-29T07:32:09;14.27;;;2.38;;
78732;SDS011;68056;52.530;5.454;2023-12-29T07:34:34;11.30;;;2.85;;
78732;SDS011;68056;52.530;5.454;2023-12-29T07:37:00;12.07;;;3.08;;
78732;SDS011;68056;52.530;5.454;2023-12-29T07:39:26;12.23;;;1.77;;
78732;SDS011;68056;52.530;5.454;2023-12-29T07:41:51;13.65;;;2.72;;
78732;SDS011;68056;52.530;5.454;2023-12-29T07:44:18;8.90;;;1.85;;
78732;SDS011;68056;52.530;5.454;2023-12-29T07:46:44;8.93;;;2.13;;
78732;SDS011;68056;52.530;5.454;2023-12-29T07:49:10;12.07;;;2.50;;
78732;SDS011;68056;52.530;5.454;2023-12-29T07:51:39;13.27;;;2.05;;
78732;SDS011;68056;52.530;5.454;2023-12-29T07:54:06;10.35;;;2.13;;
78732;SDS011;68056;52.530;5.454;2023-12-29T07:56:32;12.52;;;2.10;;
78732;SDS011;68056;52.530;5.454;2023-12-29T07:58:58;6.20;;;1.73;;
78732;SDS011;68056;52.530;5.454;2023-12-29T08:01:23;9.68;;;1.85;;
78732;SDS011;68056;52.530;5.454;2023-12-29T08:03:49;11.18;;;1.67;;
78732;SDS011;68056;52.530;5.454;2023-12-29T08:06:14;8.48;;;1.58;;
78732;SDS011;68056;52.530;5.454;2023-12-29T08:08:40;7.68;;;2.60;;
78732;SDS011;68056;52.530;5.454;2023-12-29T08:11:06;7.20;;;1.80;;
78732;SDS011;68056;52.530;5.454;2023-12-29T08:13:38;9.88;;;2.20;;
78732;SDS011;68056;52.530;5.454;2023-12-29T08:16:05;7.47;;;2.17;;
78732;SDS011;68056;52.530;5.454;2023-12-29T08:18:32;7.65;;;1.70;;
78732;SDS011;68056;52.530;5.454;2023-12-29T08:20:57;9.73;;;1.38;;
78732;SDS011;68056;52.530;5.454;2023-12-29T08:23:24;8.32;;;1.55;;
78732;SDS011;68056;52.530;5.454;2023-12-29T08:25:51;7.78;;;1.60;;
78732;SDS011;68056;52.530;5.454;2023-12-29T08:28:17;6.35;;;1.95;;
78732;SDS011;68056;52.530;5.454;2023-12-29T08:30:43;9.00;;;2.00;;
78732;SDS011;68056;52.530;5.454;2023-12-29T08:35:37;6.03;;;1.13;;
78732;SDS011;68056;52.530;5.454;2023-12-29T08:38:04;4.47;;;1.38;;
78732;SDS011;68056;52.530;5.454;2023-12-29T08:40:29;4.88;;;1.45;;
78732;SDS011;68056;52.530;5.454;2023-12-29T08:42:55;4.22;;;1.38;;
78732;SDS011;68056;52.530;5.454;2023-12-29T08:45:20;6.88;;;1.10;;
78732;SDS011;68056;52.530;5.454;2023-12-29T08:47:46;4.95;;;1.30;;
78732;SDS011;68056;52.530;5.454;2023-12-29T08:50:11;9.30;;;1.90;;
78732;SDS011;68056;52.530;5.454;2023-12-29T08:52:37;10.05;;;1.95;;
78732;SDS011;68056;52.530;5.454;2023-12-29T08:55:02;6.32;;;1.63;;
78732;SDS011;68056;52.530;5.454;2023-12-29T08:57:28;12.95;;;2.05;;
78732;SDS011;68056;52.530;5.454;2023-12-29T08:59:56;7.93;;;1.33;;
78732;SDS011;68056;52.530;5.454;2023-12-29T09:02:21;6.68;;;1.90;;
78732;SDS011;68056;52.530;5.454;2023-12-29T09:04:47;6.63;;;1.80;;
78732;SDS011;68056;52.530;5.454;2023-12-29T09:07:12;7.80;;;1.63;;
78732;SDS011;68056;52.530;5.454;2023-12-29T09:09:38;7.00;;;1.30;;
78732;SDS011;68056;52.530;5.454;2023-12-29T09:12:04;7.18;;;2.22;;
78732;SDS011;68056;52.530;5.454;2023-12-29T09:14:30;6.25;;;1.35;;
78732;SDS011;68056;52.530;5.454;2023-12-29T09:19:23;6.93;;;1.30;;
78732;SDS011;68056;52.530;5.454;2023-12-29T09:21:48;6.20;;;1.83;;
78732;SDS011;68056;52.530;5.454;2023-12-29T09:24:14;6.90;;;1.27;;
78732;SDS011;68056;52.530;5.454;2023-12-29T09:26:39;7.97;;;1.08;;
78732;SDS011;68056;52.530;5.454;2023-12-29T09:29:05;5.97;;;1.30;;
78732;SDS011;68056;52.530;5.454;2023-12-29T09:31:31;6.53;;;1.25;;
78732;SDS011;68056;52.530;5.454;2023-12-29T09:33:56;7.93;;;1.80;;
78732;SDS011;68056;52.530;5.454;2023-12-29T09:36:22;2.97;;;1.20;;
78732;SDS011;68056;52.530;5.454;2023-12-29T09:38:47;6.10;;;1.67;;
78732;SDS011;68056;52.530;5.454;2023-12-29T09:41:14;7.32;;;2.25;;
78732;SDS011;68056;52.530;5.454;2023-12-29T09:46:08;5.85;;;1.58;;
78732;SDS011;68056;52.530;5.454;2023-12-29T09:48:35;4.50;;;1.75;;
78732;SDS011;68056;52.530;5.454;2023-12-29T09:51:04;2.08;;;1.20;;
78732;SDS011;68056;52.530;5.454;2023-12-29T09:53:30;2.85;;;1.20;;
78732;SDS011;68056;52.530;5.454;2023-12-29T09:55:56;5.18;;;1.02;;
78732;SDS011;68056;52.530;5.454;2023-12-29T09:58:24;4.78;;;1.30;;
78732;SDS011;68056;52.530;5.454;2023-12-29T10:00:50;6.88;;;1.30;;
78732;SDS011;68056;52.530;5.454;2023-12-29T10:03:16;4.85;;;0.98;;
78732;SDS011;68056;52.530;5.454;2023-12-29T10:05:42;5.50;;;1.17;;
78732;SDS011;68056;52.530;5.454;2023-12-29T10:08:13;6.15;;;1.15;;
78732;SDS011;68056;52.530;5.454;2023-12-29T10:10:39;8.50;;;1.27;;
78732;SDS011;68056;52.530;5.454;2023-12-29T10:13:07;9.45;;;1.38;;
78732;SDS011;68056;52.530;5.454;2023-12-29T10:15:42;8.88;;;1.70;;
78732;SDS011;68056;52.530;5.454;2023-12-29T10:18:14;7.00;;;2.10;;
78732;SDS011;68056;52.530;5.454;2023-12-29T10:23:40;9.77;;;1.75;;
78732;SDS011;68056;52.530;5.454;2023-12-29T10:26:11;8.77;;;1.50;;
78732;SDS011;68056;52.530;5.454;2023-12-29T10:28:37;15.73;;;1.92;;
78732;SDS011;68056;52.530;5.454;2023-12-29T10:31:04;9.73;;;1.88;;
78732;SDS011;68056;52.530;5.454;2023-12-29T10:33:29;9.73;;;1.67;;
78732;SDS011;68056;52.530;5.454;2023-12-29T10:35:57;10.15;;;2.38;;
78732;SDS011;68056;52.530;5.454;2023-12-29T10:38:28;15.85;;;2.28;;
78732;SDS011;68056;52.530;5.454;2023-12-29T10:40:54;12.02;;;2.00;;
78732;SDS011;68056;52.530;5.454;2023-12-29T10:43:23;8.63;;;1.90;;
78732;SDS011;68056;52.530;5.454;2023-12-29T10:45:49;7.75;;;1.50;;
78732;SDS011;68056;52.530;5.454;2023-12-29T10:48:23;6.93;;;1.50;;
78732;SDS011;68056;52.530;5.454;2023-12-29T10:50:49;6.28;;;1.83;;
78732;SDS011;68056;52.530;5.454;2023-12-29T10:53:15;8.48;;;1.60;;
78732;SDS011;68056;52.530;5.454;2023-12-29T10:55:44;10.48;;;2.33;;
78732;SDS011;68056;52.530;5.454;2023-12-29T10:58:09;11.20;;;2.47;;
78732;SDS011;68056;52.530;5.454;2023-12-29T11:00:35;10.75;;;1.48;;
78732;SDS011;68056;52.530;5.454;2023-12-29T11:03:01;10.88;;;2.60;;
78732;SDS011;68056;52.530;5.454;2023-12-29T11:05:27;8.07;;;1.33;;
78732;SDS011;68056;52.530;5.454;2023-12-29T11:07:53;10.35;;;1.58;;
78732;SDS011;68056;52.530;5.454;2023-12-29T11:10:20;11.45;;;2.15;;
78732;SDS011;68056;52.530;5.454;2023-12-29T11:12:48;10.23;;;1.95;;
78732;SDS011;68056;52.530;5.454;2023-12-29T11:15:15;15.13;;;2.03;;
78732;SDS011;68056;52.530;5.454;2023-12-29T11:17:41;10.50;;;1.92;;
78732;SDS011;68056;52.530;5.454;2023-12-29T11:20:17;8.07;;;1.65;;
78732;SDS011;68056;52.530;5.454;2023-12-29T11:25:11;9.00;;;1.33;;
78732;SDS011;68056;52.530;5.454;2023-12-29T11:27:37;10.23;;;1.85;;
78732;SDS011;68056;52.530;5.454;2023-12-29T11:30:04;8.02;;;1.95;;
78732;SDS011;68056;52.530;5.454;2023-12-29T11:32:32;11.25;;;1.90;;
78732;SDS011;68056;52.530;5.454;2023-12-29T11:35:13;5.40;;;1.30;;
78732;SDS011;68056;52.530;5.454;2023-12-29T11:42:51;9.18;;;1.67;;
78732;SDS011;68056;52.530;5.454;2023-12-29T11:45:29;5.60;;;1.05;;
78732;SDS011;68056;52.530;5.454;2023-12-29T11:48:02;13.45;;;2.00;;
78732;SDS011;68056;52.530;5.454;2023-12-29T11:50:29;8.02;;;1.40;;
78732;SDS011;68056;52.530;5.454;2023-12-29T11:52:56;7.38;;;1.45;;
78732;SDS011;68056;52.530;5.454;2023-12-29T11:55:27;5.68;;;1.30;;
78732;SDS011;68056;52.530;5.454;2023-12-29T11:57:54;5.38;;;1.13;;
78732;SDS011;68056;52.530;5.454;2023-12-29T12:00:20;8.98;;;1.60;;
78732;SDS011;68056;52.530;5.454;2023-12-29T12:03:13;9.23;;;1.42;;
78732;SDS011;68056;52.530;5.454;2023-12-29T12:05:46;7.43;;;1.77;;
78732;SDS011;68056;52.530;5.454;2023-12-29T12:08:26;9.65;;;1.95;;
78732;SDS011;68056;52.530;5.454;2023-12-29T12:13:53;7.80;;;1.42;;
78732;SDS011;68056;52.530;5.454;2023-12-29T12:19:10;6.53;;;1.20;;
78732;SDS011;68056;52.530;5.454;2023-12-29T12:21:37;9.02;;;1.05;;
78732;SDS011;68056;52.530;5.454;2023-12-29T12:24:06;6.13;;;0.95;;
78732;SDS011;68056;52.530;5.454;2023-12-29T12:26:32;8.98;;;1.45;;
78732;SDS011;68056;52.530;5.454;2023-12-29T12:31:25;6.70;;;1.52;;
78732;SDS011;68056;52.530;5.454;2023-12-29T12:33:58;7.68;;;1.27;;
78732;SDS011;68056;52.530;5.454;2023-12-29T12:36:27;6.57;;;1.00;;
78732;SDS011;68056;52.530;5.454;2023-12-29T12:38:53;5.88;;;0.98;;
78732;SDS011;68056;52.530;5.454;2023-12-29T12:41:23;9.10;;;1.58;;
78732;SDS011;68056;52.530;5.454;2023-12-29T12:49:12;4.05;;;1.42;;
78732;SDS011;68056;52.530;5.454;2023-12-29T12:51:38;7.82;;;1.73;;
78732;SDS011;68056;52.530;5.454;2023-12-29T12:54:03;7.43;;;0.93;;
78732;SDS011;68056;52.530;5.454;2023-12-29T12:56:29;7.57;;;1.13;;
78732;SDS011;68056;52.530;5.454;2023-12-29T12:59:00;4.85;;;1.30;;
78732;SDS011;68056;52.530;5.454;2023-12-29T13:01:27;6.50;;;1.20;;
78732;SDS011;68056;52.530;5.454;2023-12-29T13:03:53;6.22;;;1.52;;
78732;SDS011;68056;52.530;5.454;2023-12-29T13:06:21;4.68;;;1.20;;
78732;SDS011;68056;52.530;5.454;2023-12-29T13:08:50;5.53;;;1.50;;
78732;SDS011;68056;52.530;5.454;2023-12-29T13:11:20;6.85;;;1.10;;
78732;SDS011;68056;52.530;5.454;2023-12-29T13:13:52;7.60;;;1.33;;
78732;SDS011;68056;52.530;5.454;2023-12-29T13:16:31;5.68;;;1.15;;
78732;SDS011;68056;52.530;5.454;2023-12-29T13:19:14;4.35;;;1.30;;
78732;SDS011;68056;52.530;5.454;2023-12-29T13:21:47;5.82;;;1.30;;
78732;SDS011;68056;52.530;5.454;2023-12-29T13:24:15;3.95;;;0.85;;
78732;SDS011;68056;52.530;5.454;2023-12-29T13:26:41;5.22;;;0.90;;
78732;SDS011;68056;52.530;5.454;2023-12-29T13:29:09;4.90;;;1.00;;
78732;SDS011;68056;52.530;5.454;2023-12-29T13:31:34;5.03;;;1.13;;
78732;SDS011;68056;52.530;5.454;2023-12-29T13:34:04;6.35;;;1.40;;
78732;SDS011;68056;52.530;5.454;2023-12-29T13:36:41;7.25;;;1.45;;
78732;SDS011;68056;52.530;5.454;2023-12-29T13:39:21;5.57;;;0.80;;
78732;SDS011;68056;52.530;5.454;2023-12-29T13:42:00;7.18;;;1.35;;
78732;SDS011;68056;52.530;5.454;2023-12-29T13:44:29;7.45;;;1.65;;
78732;SDS011;68056;52.530;5.454;2023-12-29T13:46:57;6.70;;;1.27;;
78732;SDS011;68056;52.530;5.454;2023-12-29T13:49:23;6.82;;;1.10;;
78732;SDS011;68056;52.530;5.454;2023-12-29T13:51:49;7.93;;;1.58;;
78732;SDS011;68056;52.530;5.454;2023-12-29T13:54:15;5.05;;;1.20;;
78732;SDS011;68056;52.530;5.454;2023-12-29T13:56:51;9.15;;;1.27;;
78732;SDS011;68056;52.530;5.454;2023-12-29T13:59:18;4.85;;;0.88;;
78732;SDS011;68056;52.530;5.454;2023-12-29T14:01:44;12.82;;;2.03;;
78732;SDS011;68056;52.530;5.454;2023-12-29T14:04:10;9.18;;;1.40;;
78732;SDS011;68056;52.530;5.454;2023-12-29T14:09:25;6.75;;;1.05;;
78732;SDS011;68056;52.530;5.454;2023-12-29T14:11:51;8.88;;;1.15;;
78732;SDS011;68056;52.530;5.454;2023-12-29T14:14:23;4.47;;;0.90;;
78732;SDS011;68056;52.530;5.454;2023-12-29T14:16:52;8.57;;;1.13;;
78732;SDS011;68056;52.530;5.454;2023-12-29T14:19:18;10.20;;;1.45;;
78732;SDS011;68056;52.530;5.454;2023-12-29T14:21:45;6.55;;;1.58;;
78732;SDS011;68056;52.530;5.454;2023-12-29T14:24:15;4.35;;;0.95;;
78732;SDS011;68056;52.530;5.454;2023-12-29T14:29:19;9.23;;;1.30;;
78732;SDS011;68056;52.530;5.454;2023-12-29T14:31:46;6.88;;;1.35;;
78732;SDS011;68056;52.530;5.454;2023-12-29T14:34:12;5.28;;;1.30;;
78732;SDS011;68056;52.530;5.454;2023-12-29T14:36:40;6.70;;;1.45;;
78732;SDS011;68056;52.530;5.454;2023-12-29T14:39:06;5.45;;;1.33;;
78732;SDS011;68056;52.530;5.454;2023-12-29T14:41:32;3.60;;;1.17;;
78732;SDS011;68056;52.530;5.454;2023-12-29T14:43:58;5.45;;;2.05;;
78732;SDS011;68056;52.530;5.454;2023-12-29T14:46:24;4.55;;;0.80;;
78732;SDS011;68056;52.530;5.454;2023-12-29T14:48:51;6.78;;;0.93;;
78732;SDS011;68056;52.530;5.454;2023-12-29T14:51:17;4.00;;;0.43;;
78732;SDS011;68056;52.530;5.454;2023-12-29T14:53:44;6.70;;;0.88;;
78732;SDS011;68056;52.530;5.454;2023-12-29T14:56:14;2.50;;;0.63;;
78732;SDS011;68056;52.530;5.454;2023-12-29T14:58:40;4.53;;;0.60;;
78732;SDS011;68056;52.530;5.454;2023-12-29T15:01:06;2.33;;;0.60;;
78732;SDS011;68056;52.530;5.454;2023-12-29T15:03:32;2.95;;;0.90;;
78732;SDS011;68056;52.530;5.454;2023-12-29T15:05:58;1.25;;;0.57;;
78732;SDS011;68056;52.530;5.454;2023-12-29T15:08:24;3.40;;;0.68;;
78732;SDS011;68056;52.530;5.454;2023-12-29T15:10:51;2.17;;;0.50;;
78732;SDS011;68056;52.530;5.454;2023-12-29T15:13:17;1.77;;;0.40;;
78732;SDS011;68056;52.530;5.454;2023-12-29T15:15:42;1.60;;;0.30;;
78732;SDS011;68056;52.530;5.454;2023-12-29T15:18:08;2.33;;;0.40;;
78732;SDS011;68056;52.530;5.454;2023-12-29T15:20:33;3.58;;;0.25;;
78732;SDS011;68056;52.530;5.454;2023-12-29T15:22:59;1.45;;;0.40;;